Time;durP1;ratioP1;P1;durP2;ratioP2;P2;SDS_P1;SDS_P2;PMS_P1;PMS_P2;Temp;Humidity;BMP_temperature;BMP_pressure;BME280_temperature;BME280_humidity;BME280_pressure;Samples;Min_cycle;Max_cycle;Signal;HPM_P1;HPM_P2
2023/07/07 00:02:27;;;;;;;6.72;5.00;;;11.70;99.90;;;;;;8276216;28;20029;-82
2023/07/07 00:06:28;;;;;;;8.25;5.22;;;11.70;99.90;;;;;;8269449;28;20019;-82
2023/07/07 00:10:28;;;;;;;9.30;5.30;;;11.70;99.90;;;;;;8247794;28;20033;-82
2023/07/07 00:14:29;;;;;;;8.70;4.97;;;11.70;99.90;;;;;;8273649;28;20046;-82
2023/07/07 00:18:29;;;;;;;10.88;4.90;;;11.60;99.90;;;;;;8267386;28;20030;-82
2023/07/07 00:22:31;;;;;;;9.18;5.13;;;11.60;99.90;;;;;;8267913;28;20026;-82
2023/07/07 00:26:32;;;;;;;10.52;5.22;;;11.30;99.90;;;;;;8291494;28;20027;-82
2023/07/07 00:30:32;;;;;;;6.70;4.72;;;11.20;99.90;;;;;;8293236;28;20121;-82
2023/07/07 00:34:33;;;;;;;7.65;5.18;;;11.00;99.90;;;;;;8278588;28;20025;-82
2023/07/07 00:38:34;;;;;;;8.30;5.30;;;11.00;99.90;;;;;;8290152;28;20027;-82
2023/07/07 00:42:35;;;;;;;10.95;5.55;;;10.90;99.90;;;;;;8271479;28;20022;-82
2023/07/07 00:46:37;;;;;;;11.02;5.32;;;11.10;99.90;;;;;;8314790;28;20026;-82
2023/07/07 00:50:53;;;;;;;9.05;6.03;;;11.10;99.90;;;;;;8275223;28;20030;-82
2023/07/07 00:54:54;;;;;;;9.63;5.88;;;11.00;99.90;;;;;;8252445;28;20022;-82
2023/07/07 00:59:00;;;;;;;8.65;5.55;;;11.10;99.90;;;;;;8272110;28;20018;-82
2023/07/07 01:03:06;;;;;;;7.40;5.63;;;11.00;99.90;;;;;;8286326;28;20365;-82
2023/07/07 01:07:13;;;;;;;9.40;6.28;;;10.80;99.90;;;;;;8275034;28;20031;-82
2023/07/07 01:11:17;;;;;;;9.45;6.32;;;10.60;99.90;;;;;;8258779;28;20026;-81
2023/07/07 01:15:21;;;;;;;11.75;6.68;;;10.50;99.90;;;;;;8262447;28;20030;-81
2023/07/07 01:19:57;;;;;;;13.85;6.63;;;10.40;99.90;;;;;;8252772;28;20030;-82
2023/07/07 01:24:18;;;;;;;8.60;5.97;;;10.30;99.90;;;;;;8306241;28;20061;-82
2023/07/07 01:28:38;;;;;;;11.02;5.63;;;10.40;99.90;;;;;;8285795;28;20543;-82
2023/07/07 01:32:39;;;;;;;9.68;5.70;;;10.40;99.90;;;;;;8308558;28;20092;-81
2023/07/07 01:36:39;;;;;;;12.73;5.10;;;10.50;99.90;;;;;;8274663;28;20046;-80
2023/07/07 01:40:51;;;;;;;9.05;5.53;;;10.50;99.90;;;;;;8272846;28;20032;-82
2023/07/07 01:45:14;;;;;;;9.85;5.88;;;10.60;99.90;;;;;;8276804;28;20026;-81
2023/07/07 01:49:28;;;;;;;12.13;6.18;;;10.60;99.90;;;;;;8327176;28;20050;-82
2023/07/07 01:53:31;;;;;;;7.78;5.43;;;10.50;99.90;;;;;;8294375;28;20025;-82
2023/07/07 01:57:33;;;;;;;9.55;5.88;;;10.30;99.90;;;;;;8285365;28;20556;-82
2023/07/07 02:01:35;;;;;;;10.93;5.30;;;10.20;99.90;;;;;;8271754;28;20087;-82
2023/07/07 02:05:35;;;;;;;11.10;6.05;;;10.00;99.90;;;;;;8248806;28;20019;-82
2023/07/07 02:09:37;;;;;;;11.65;6.72;;;9.80;99.90;;;;;;8267974;28;20049;-80
2023/07/07 02:13:38;;;;;;;9.43;6.45;;;9.70;99.90;;;;;;8280005;28;20511;-81
2023/07/07 02:17:39;;;;;;;32.30;7.68;;;9.70;99.90;;;;;;8262737;28;20018;-82
2023/07/07 02:21:39;;;;;;;12.00;6.63;;;9.90;99.90;;;;;;8323279;28;20029;-81
2023/07/07 02:25:40;;;;;;;11.18;6.15;;;9.90;99.90;;;;;;8262135;28;20110;-82
2023/07/07 02:29:40;;;;;;;45.05;14.13;;;10.00;99.90;;;;;;8261987;28;20028;-82
2023/07/07 02:33:41;;;;;;;15.40;6.35;;;9.80;99.90;;;;;;8266099;28;20503;-81
2023/07/07 02:37:41;;;;;;;14.45;5.90;;;9.80;99.90;;;;;;8290926;28;20675;-81
2023/07/07 02:41:42;;;;;;;11.35;6.25;;;9.80;99.90;;;;;;8275825;28;20053;-81
2023/07/07 02:45:45;;;;;;;9.25;5.78;;;9.70;99.90;;;;;;8336004;28;20034;-81
2023/07/07 02:49:46;;;;;;;10.45;6.30;;;9.50;99.90;;;;;;8299911;28;20272;-81
2023/07/07 02:53:50;;;;;;;9.98;6.25;;;9.40;99.90;;;;;;8280979;22;20026;-77
2023/07/07 02:57:59;;;;;;;11.75;6.38;;;9.30;99.90;;;;;;8304444;28;20485;-77
2023/07/07 03:02:00;;;;;;;11.97;6.97;;;9.40;99.90;;;;;;8290093;28;20023;-77
2023/07/07 03:06:06;;;;;;;14.98;6.05;;;9.60;99.90;;;;;;8250722;23;20063;-77
2023/07/07 03:10:08;;;;;;;12.27;5.63;;;9.50;99.90;;;;;;8323896;28;20599;-77
2023/07/07 03:14:08;;;;;;;13.55;6.70;;;9.40;99.90;;;;;;8275689;23;20067;-77
2023/07/07 03:18:10;;;;;;;16.60;6.43;;;9.20;99.90;;;;;;8328720;28;20067;-76
2023/07/07 03:22:10;;;;;;;13.90;6.35;;;9.20;99.90;;;;;;8261179;28;20035;-77
2023/07/07 03:26:15;;;;;;;11.25;6.03;;;9.20;99.90;;;;;;8260417;28;20120;-77
2023/07/07 03:30:16;;;;;;;14.48;6.20;;;9.20;99.90;;;;;;8260416;28;20060;-77
2023/07/07 03:34:16;;;;;;;11.30;6.75;;;9.10;99.90;;;;;;8259701;28;20031;-77
2023/07/07 03:38:17;;;;;;;11.38;6.60;;;9.10;99.90;;;;;;8260143;28;20503;-77
2023/07/07 03:42:17;;;;;;;13.32;6.72;;;9.20;99.90;;;;;;8260701;28;20038;-77
2023/07/07 03:46:20;;;;;;;13.43;6.82;;;9.20;99.90;;;;;;8259472;28;20031;-77
2023/07/07 03:50:20;;;;;;;13.38;7.00;;;9.40;99.90;;;;;;8260162;28;20030;-76
2023/07/07 03:54:49;;;;;;;12.07;6.97;;;9.50;99.90;;;;;;8368998;23;20066;-77
2023/07/07 03:59:20;;;;;;;12.85;6.35;;;9.60;99.90;;;;;;8425697;28;20046;-77
2023/07/07 04:03:27;;;;;;;;;;;9.90;99.90;;;;;;8449628;27;20481;-77
2023/07/07 04:07:40;;;;;;;11.70;5.88;;;10.30;99.90;;;;;;8393797;28;20007;-77
2023/07/07 04:11:44;;;;;;;13.52;6.97;;;10.70;99.90;;;;;;8398626;28;20024;-77
2023/07/07 04:15:58;;;;;;;11.68;6.40;;;11.10;99.90;;;;;;8411633;28;20037;-78
2023/07/07 04:20:21;;;;;;;;;;;;;;;;;;;;;
2023/07/07 04:24:22;;;;;;;8.13;5.78;;;11.90;99.90;;;;;;8385976;28;20505;-78
2023/07/07 04:41:49;;;;;;;8.23;5.18;;;14.50;99.90;;;;;;8239299;22;20072;-77
2023/07/07 04:45:52;;;;;;;7.03;4.97;;;14.40;99.90;;;;;;8222776;28;20039;-77
2023/07/07 04:50:21;;;;;;;8.18;5.57;;;15.50;99.90;;;;;;8292284;28;20019;-77
2023/07/07 04:54:28;;;;;;;11.77;5.18;;;16.10;99.90;;;;;;8226705;28;20043;-78
2023/07/07 04:58:29;;;;;;;9.10;4.93;;;16.60;99.90;;;;;;8294170;28;20031;-78
2023/07/07 05:02:29;;;;;;;7.70;5.30;;;16.90;99.90;;;;;;8223579;28;20123;-81
2023/07/07 05:06:33;;;;;;;7.93;4.88;;;17.00;99.90;;;;;;8307103;28;20062;-85
2023/07/07 05:10:33;;;;;;;8.20;4.90;;;17.30;99.90;;;;;;8324697;28;20023;-83
2023/07/07 05:14:34;;;;;;;8.85;5.25;;;18.00;99.90;;;;;;8313139;28;20225;-82
2023/07/07 05:18:35;;;;;;;7.97;5.00;;;18.10;99.90;;;;;;8331199;28;20033;-81
2023/07/07 05:22:35;;;;;;;8.50;5.50;;;18.30;99.90;;;;;;8313581;28;20030;-82
2023/07/07 05:26:36;;;;;;;6.90;5.05;;;18.90;99.90;;;;;;8312419;28;20031;-82
2023/07/07 05:30:38;;;;;;;8.30;5.18;;;19.00;99.90;;;;;;8323856;28;20098;-82
2023/07/07 05:34:39;;;;;;;5.93;5.03;;;19.80;99.90;;;;;;8239770;28;20027;-83
2023/07/07 05:38:41;;;;;;;8.50;5.28;;;19.90;99.90;;;;;;8311408;28;20419;-82
2023/07/07 05:42:42;;;;;;;8.13;5.72;;;20.90;99.90;;;;;;8310287;28;20126;-82
2023/07/07 05:46:43;;;;;;;7.28;5.63;;;21.00;99.90;;;;;;8242165;28;20043;-82
2023/07/07 05:50:45;;;;;;;9.68;5.50;;;21.20;99.90;;;;;;8312723;28;20666;-82
2023/07/07 05:54:46;;;;;;;10.10;5.32;;;21.40;99.90;;;;;;8298563;28;20050;-83
2023/07/07 05:58:46;;;;;;;7.20;4.82;;;22.00;99.90;;;;;;8305859;28;20031;-82
2023/07/07 06:02:47;;;;;;;7.97;5.78;;;22.20;99.90;;;;;;8254179;28;20654;-83
2023/07/07 06:06:47;;;;;;;7.43;5.53;;;22.20;99.90;;;;;;8320197;28;20086;-84
2023/07/07 06:10:48;;;;;;;12.45;5.70;;;22.70;99.90;;;;;;8314896;28;20031;-84
2023/07/07 06:14:49;;;;;;;8.80;5.32;;;23.40;99.90;;;;;;8310214;28;20524;-83
2023/07/07 06:18:49;;;;;;;10.52;5.50;;;24.10;99.90;;;;;;8311908;28;20030;-84
2023/07/07 06:22:53;;;;;;;8.65;5.78;;;24.20;99.90;;;;;;8317801;28;20076;-83
2023/07/07 06:26:53;;;;;;;8.63;5.53;;;24.30;99.90;;;;;;8294154;28;20027;-80
2023/07/07 06:30:54;;;;;;;6.82;5.40;;;24.20;99.90;;;;;;8295331;28;20047;-79
2023/07/07 06:34:54;;;;;;;16.48;6.60;;;25.00;99.90;;;;;;8294608;28;20026;-80
2023/07/07 06:38:55;;;;;;;11.80;4.65;;;25.30;99.90;;;;;;8293980;28;20489;-79
2023/07/07 06:42:58;;;;;;;7.30;4.55;;;25.70;99.90;;;;;;8323373;28;20045;-80
2023/07/07 06:47:00;;;;;;;7.47;5.00;;;26.30;99.90;;;;;;8299628;28;20076;-79
2023/07/07 06:51:00;;;;;;;8.68;4.90;;;26.40;99.90;;;;;;8300318;28;20030;-79
2023/07/07 06:55:01;;;;;;;7.45;4.72;;;26.80;99.10;;;;;;8317870;28;20019;-78
2023/07/07 06:59:03;;;;;;;6.75;5.20;;;26.90;99.50;;;;;;8296373;28;20039;-78
2023/07/07 07:03:04;;;;;;;7.43;5.68;;;27.10;98.90;;;;;;8232508;28;20031;-80
2023/07/07 07:07:05;;;;;;;9.18;5.45;;;26.80;99.90;;;;;;8231380;28;20500;-80
2023/07/07 07:11:06;;;;;;;10.05;5.20;;;27.00;98.30;;;;;;8299880;28;20057;-80
2023/07/07 07:15:07;;;;;;;15.65;12.45;;;27.50;96.80;;;;;;8299588;28;20031;-79
2023/07/07 07:19:08;;;;;;;7.70;5.20;;;27.60;98.60;;;;;;8299554;28;20106;-79
2023/07/07 07:23:09;;;;;;;7.57;4.82;;;27.50;95.80;;;;;;8301534;28;20019;-79
2023/07/07 07:27:09;;;;;;;8.68;5.78;;;27.80;98.30;;;;;;8317076;28;20038;-80
2023/07/07 07:31:12;;;;;;;7.40;5.25;;;27.30;96.90;;;;;;8298317;28;20027;-79
2023/07/07 07:35:13;;;;;;;9.95;5.47;;;27.60;97.90;;;;;;8230529;28;20026;-79
2023/07/07 07:39:14;;;;;;;9.38;5.22;;;27.80;97.40;;;;;;8231555;28;20035;-80
2023/07/07 07:43:14;;;;;;;7.30;5.38;;;28.40;98.70;;;;;;8315373;28;20507;-79
2023/07/07 07:47:15;;;;;;;7.00;5.63;;;28.90;96.40;;;;;;8317282;28;20055;-80
2023/07/07 07:51:15;;;;;;;7.57;5.43;;;29.20;97.60;;;;;;8314153;28;20515;-79
2023/07/07 07:55:16;;;;;;;11.02;7.22;;;28.60;98.20;;;;;;8312907;28;20191;-79
2023/07/07 07:59:17;;;;;;;8.18;6.00;;;29.20;96.00;;;;;;8296409;28;20058;-80
2023/07/07 08:03:18;;;;;;;8.05;5.05;;;29.10;93.60;;;;;;8313540;28;20119;-80
2023/07/07 08:07:18;;;;;;;8.85;4.82;;;29.20;94.80;;;;;;8312373;28;20055;-79
2023/07/07 08:11:29;;;;;;;6.88;4.38;;;29.90;91.80;;;;;;8313484;28;20030;-79
2023/07/07 08:15:29;;;;;;;6.82;5.10;;;29.60;92.30;;;;;;8317412;28;20550;-80
2023/07/07 08:19:32;;;;;;;5.65;4.32;;;29.50;89.90;;;;;;8313936;28;20026;-80
2023/07/07 08:23:32;;;;;;;7.97;4.80;;;29.80;91.80;;;;;;8314664;28;20409;-80
2023/07/07 08:27:33;;;;;;;6.80;4.70;;;30.00;85.20;;;;;;8233956;28;20035;-79
2023/07/07 08:31:34;;;;;;;6.35;4.75;;;30.00;86.50;;;;;;8314000;28;20075;-78
2023/07/07 08:35:34;;;;;;;7.50;4.82;;;30.00;85.70;;;;;;8313288;28;20708;-79
2023/07/07 08:39:35;;;;;;;6.18;4.68;;;30.30;84.10;;;;;;8296482;28;20083;-79
2023/07/07 08:43:36;;;;;;;6.78;5.07;;;29.90;86.70;;;;;;8313088;28;20027;-78
2023/07/07 08:47:42;;;;;;;7.60;4.95;;;30.10;90.00;;;;;;8234286;28;20077;-79
2023/07/07 08:51:49;;;;;;;5.82;4.70;;;30.40;85.70;;;;;;8313007;28;20519;-79
2023/07/07 08:55:59;;;;;;;6.82;4.70;;;30.60;89.50;;;;;;8284604;22;20403;-78
2023/07/07 09:00:08;;;;;;;7.70;4.87;;;30.70;83.60;;;;;;8354717;28;20103;-78
2023/07/07 09:04:51;;;;;;;6.10;4.70;;;30.60;82.20;;;;;;8341369;28;20045;-78
2023/07/07 09:08:59;;;;;;;8.10;4.93;;;30.50;81.50;;;;;;8304818;28;20061;-78
2023/07/07 09:13:23;;;;;;;7.82;5.32;;;30.50;82.40;;;;;;8320309;28;20033;-78
2023/07/07 09:17:33;;;;;;;7.80;5.03;;;30.30;82.70;;;;;;8305788;28;20089;-78
2023/07/07 09:22:11;;;;;;;5.70;4.68;;;29.70;82.10;;;;;;8313123;28;20025;-78
2023/07/07 09:26:32;;;;;;;8.93;5.00;;;29.30;86.30;;;;;;8325479;28;20040;-77
2023/07/07 09:30:50;;;;;;;6.75;5.05;;;29.00;81.80;;;;;;8326224;28;20025;-78
2023/07/07 09:34:51;;;;;;;11.90;5.55;;;29.10;81.50;;;;;;8321949;28;20029;-78
2023/07/07 09:39:13;;;;;;;8.48;4.90;;;28.80;78.10;;;;;;8315427;28;20031;-78
2023/07/07 09:43:34;;;;;;;6.82;4.78;;;28.40;84.00;;;;;;8316290;28;20030;-78
2023/07/07 09:48:05;;;;;;;8.18;5.43;;;28.90;78.10;;;;;;8325878;28;20021;-78
2023/07/07 09:52:09;;;;;;;7.10;5.38;;;29.40;80.00;;;;;;8304782;28;20025;-78
2023/07/07 09:56:14;;;;;;;7.30;5.00;;;29.60;77.20;;;;;;8307836;28;20037;-78
2023/07/07 10:00:17;;;;;;;8.02;4.95;;;29.90;79.10;;;;;;8314027;28;20025;-79
2023/07/07 10:04:20;;;;;;;7.43;5.40;;;29.90;77.60;;;;;;8309627;28;20026;-78
2023/07/07 10:08:21;;;;;;;8.27;5.40;;;30.20;74.80;;;;;;8325308;28;20091;-78
2023/07/07 10:12:21;;;;;;;9.02;5.15;;;30.30;74.70;;;;;;8325841;28;20028;-78
2023/07/07 10:16:33;;;;;;;8.57;5.80;;;30.30;71.90;;;;;;8325757;28;20291;-78
2023/07/07 10:20:34;;;;;;;8.35;5.25;;;29.90;76.10;;;;;;8324397;28;20064;-78
2023/07/07 10:24:35;;;;;;;10.18;5.45;;;29.20;78.20;;;;;;8316499;28;20497;-79
2023/07/07 10:28:36;;;;;;;7.68;5.15;;;29.60;72.70;;;;;;8304716;28;20033;-78
2023/07/07 10:32:37;;;;;;;10.18;5.50;;;30.00;74.70;;;;;;8325727;28;20078;-79
2023/07/07 10:36:40;;;;;;;7.95;5.05;;;30.20;85.50;;;;;;8324882;28;20407;-77
2023/07/07 10:40:42;;;;;;;6.22;4.78;;;30.60;68.50;;;;;;8324595;28;20041;-78
2023/07/07 10:44:42;;;;;;;7.60;4.90;;;30.90;66.10;;;;;;8312404;28;20025;-76
2023/07/07 10:48:44;;;;;;;8.02;4.85;;;31.20;63.50;;;;;;8314812;28;20185;-78
2023/07/07 10:52:51;;;;;;;6.07;4.78;;;31.60;65.70;;;;;;8302962;28;20017;-77
2023/07/07 10:57:00;;;;;;;8.57;4.93;;;32.60;63.10;;;;;;8323935;28;20052;-77
2023/07/07 11:01:11;;;;;;;6.07;4.75;;;32.60;59.50;;;;;;8324064;28;20081;-77
2023/07/07 11:05:42;;;;;;;7.82;4.90;;;32.10;58.80;;;;;;8322454;28;20026;-78
2023/07/07 11:10:01;;;;;;;9.75;5.18;;;33.20;67.20;;;;;;8324064;28;20046;-77
2023/07/07 11:14:57;;;;;;;7.22;4.47;;;33.50;57.90;;;;;;8321890;28;20018;-77
2023/07/07 11:19:33;;;;;;;6.82;4.40;;;34.20;58.20;;;;;;8256215;28;20061;-77
2023/07/07 11:24:07;;;;;;;7.57;4.93;;;34.00;53.70;;;;;;8319217;28;20028;-78
2023/07/07 11:28:21;;;;;;;6.28;4.68;;;34.20;57.80;;;;;;8321745;28;20029;-78
2023/07/07 11:32:27;;;;;;;7.97;4.57;;;34.60;54.40;;;;;;8313680;28;20473;-78
2023/07/07 11:36:53;;;;;;;6.63;4.95;;;35.20;53.40;;;;;;8329713;28;20018;-77
2023/07/07 11:41:12;;;;;;;9.30;5.15;;;35.10;51.00;;;;;;8330199;28;20022;-77
2023/07/07 11:45:15;;;;;;;8.13;4.40;;;35.70;52.70;;;;;;8319452;28;20022;-77
2023/07/07 11:49:38;;;;;;;8.02;5.18;;;35.90;51.60;;;;;;8320521;28;20495;-78
2023/07/07 11:53:41;;;;;;;6.93;4.38;;;35.50;51.00;;;;;;8322014;28;20025;-81
2023/07/07 11:58:16;;;;;;;7.45;4.78;;;35.80;48.40;;;;;;8306458;28;20037;-78
2023/07/07 12:02:31;;;;;;;7.28;4.65;;;36.40;46.70;;;;;;8307418;28;20022;-76
2023/07/07 12:06:37;;;;;;;8.10;4.60;;;35.90;49.10;;;;;;8301413;28;20400;-78
2023/07/07 12:10:45;;;;;;;8.20;4.65;;;35.50;48.40;;;;;;8320942;28;20468;-78
2023/07/07 12:15:02;;;;;;;8.85;4.75;;;35.90;46.90;;;;;;8313299;28;20471;-77
2023/07/07 12:19:23;;;;;;;7.57;4.70;;;35.40;45.70;;;;;;8325062;28;20029;-79
2023/07/07 12:23:30;;;;;;;9.60;4.68;;;36.70;45.00;;;;;;8312696;28;20041;-76
2023/07/07 12:27:39;;;;;;;9.77;4.95;;;37.60;44.00;;;;;;8321311;28;20020;-79
2023/07/07 12:31:40;;;;;;;8.02;4.40;;;38.30;41.60;;;;;;8312583;28;20029;-79
2023/07/07 12:35:52;;;;;;;7.70;4.60;;;39.50;40.50;;;;;;8322690;28;20422;-78
2023/07/07 12:39:57;;;;;;;15.63;5.10;;;37.70;39.50;;;;;;8329810;28;20495;-80
2023/07/07 12:44:02;;;;;;;8.32;4.63;;;37.40;41.20;;;;;;8328046;28;20013;-79
2023/07/07 12:48:17;;;;;;;6.95;4.47;;;37.60;44.30;;;;;;8310705;28;20076;-78
2023/07/07 12:52:18;;;;;;;11.60;5.05;;;36.70;45.60;;;;;;8319161;28;20086;-77
2023/07/07 12:56:25;;;;;;;9.23;4.70;;;37.90;38.90;;;;;;8308987;28;20116;-76
2023/07/07 13:00:38;;;;;;;10.70;4.80;;;37.40;40.40;;;;;;8327451;28;20459;-78
2023/07/07 13:04:49;;;;;;;9.43;4.50;;;36.70;40.30;;;;;;8327009;28;21956;-78
2023/07/07 13:09:11;;;;;;;6.10;4.32;;;36.20;40.00;;;;;;8323945;28;20037;-78
2023/07/07 13:13:23;;;;;;;8.02;3.75;;;38.40;36.90;;;;;;8326965;28;20017;-78
2023/07/07 13:17:26;;;;;;;5.68;4.15;;;40.20;35.00;;;;;;8299343;28;20026;-81
2023/07/07 13:21:36;;;;;;;5.38;3.85;;;40.90;38.00;;;;;;8316236;28;20562;-79
2023/07/07 13:25:37;;;;;;;7.00;4.43;;;41.40;36.40;;;;;;8318933;28;20053;-78
2023/07/07 13:29:38;;;;;;;6.57;4.40;;;41.10;34.50;;;;;;8315387;28;20394;-78
2023/07/07 13:33:40;;;;;;;11.80;4.20;;;40.60;34.80;;;;;;8316161;28;20578;-79
2023/07/07 13:37:41;;;;;;;10.02;4.22;;;41.40;35.20;;;;;;8310656;28;20459;-78
2023/07/07 13:41:46;;;;;;;7.75;3.80;;;41.80;31.10;;;;;;8293815;28;20076;-79
2023/07/07 13:45:47;;;;;;;6.18;3.58;;;39.30;35.20;;;;;;8295867;28;20033;-78
2023/07/07 13:49:47;;;;;;;7.82;4.15;;;40.50;35.20;;;;;;8300270;28;20037;-80
2023/07/07 13:53:50;;;;;;;5.90;3.67;;;41.20;31.40;;;;;;8303349;28;20029;-78
2023/07/07 13:57:53;;;;;;;6.78;3.85;;;42.00;31.50;;;;;;8301163;28;20375;-78
2023/07/07 14:01:55;;;;;;;7.28;4.13;;;41.90;30.40;;;;;;8304413;28;20067;-78
2023/07/07 14:06:09;;;;;;;7.00;3.92;;;42.30;34.00;;;;;;8312348;28;20097;-79
2023/07/07 14:10:27;;;;;;;7.40;3.90;;;41.70;32.90;;;;;;8302175;28;20056;-77
2023/07/07 14:14:28;;;;;;;6.15;3.92;;;42.00;32.20;;;;;;8313641;28;20377;-79
2023/07/07 14:18:34;;;;;;;6.80;3.55;;;42.10;32.70;;;;;;8306508;28;20026;-79
2023/07/07 14:22:35;;;;;;;8.60;4.28;;;41.50;35.20;;;;;;8300215;28;20033;-79
2023/07/07 14:26:36;;;;;;;7.68;3.85;;;38.50;35.80;;;;;;8315344;28;20040;-79
2023/07/07 14:30:36;;;;;;;5.95;4.22;;;39.90;33.70;;;;;;8319328;28;20060;-79
2023/07/07 14:35:24;;;;;;;6.35;3.63;;;39.80;36.40;;;;;;8318369;28;20061;-77
2023/07/07 14:39:28;;;;;;;5.78;3.92;;;40.50;33.80;;;;;;8292725;28;20559;-78
2023/07/07 14:43:30;;;;;;;7.50;4.15;;;42.70;32.60;;;;;;8298142;28;20021;-78
2023/07/07 14:47:35;;;;;;;7.40;3.60;;;43.10;30.30;;;;;;8302740;28;20075;-78
2023/07/07 14:51:52;;;;;;;6.82;4.13;;;43.50;30.20;;;;;;8297922;28;20021;-77
2023/07/07 14:55:54;;;;;;;8.05;4.25;;;44.30;28.00;;;;;;8309921;28;20038;-78
2023/07/07 14:59:54;;;;;;;8.02;3.38;;;44.00;28.00;;;;;;8310681;28;20105;-77
2023/07/07 15:04:06;;;;;;;6.28;3.80;;;43.90;29.90;;;;;;8315037;28;20194;-78
2023/07/07 15:08:12;;;;;;;7.07;3.85;;;44.20;28.20;;;;;;8321822;28;20064;-80
2023/07/07 15:12:13;;;;;;;6.95;4.07;;;43.70;28.90;;;;;;8323737;28;20404;-81
2023/07/07 15:16:22;;;;;;;9.40;4.40;;;43.40;31.60;;;;;;8316617;28;20056;-79
2023/07/07 15:20:22;;;;;;;8.95;3.80;;;43.20;29.20;;;;;;8329433;28;20018;-80
2023/07/07 15:24:23;;;;;;;7.22;3.70;;;42.30;30.90;;;;;;8321974;28;20044;-78
2023/07/07 15:28:24;;;;;;;7.93;4.07;;;41.10;30.70;;;;;;8318877;28;20021;-80
2023/07/07 15:32:24;;;;;;;7.95;3.88;;;41.20;32.80;;;;;;8321859;28;20100;-79
2023/07/07 15:36:25;;;;;;;7.97;3.80;;;40.10;34.00;;;;;;8322931;28;20437;-79
2023/07/07 15:40:25;;;;;;;9.85;4.30;;;39.80;34.10;;;;;;8324118;28;20029;-83
2023/07/07 15:44:26;;;;;;;9.57;4.03;;;38.30;36.60;;;;;;8303579;28;20014;-83
2023/07/07 15:48:26;;;;;;;8.77;3.92;;;37.20;38.60;;;;;;8328802;28;20030;-83
2023/07/07 15:52:27;;;;;;;8.23;4.10;;;35.80;35.90;;;;;;8329781;28;20076;-83
2023/07/07 15:56:33;;;;;;;15.10;3.97;;;33.90;40.40;;;;;;8323987;28;20518;-84
2023/07/07 16:00:36;;;;;;;6.28;4.05;;;32.60;42.70;;;;;;8327949;28;20021;-83
2023/07/07 16:04:37;;;;;;;10.02;4.03;;;31.70;40.60;;;;;;8328418;28;20735;-83
2023/07/07 16:08:38;;;;;;;9.68;3.75;;;31.20;42.70;;;;;;8304928;28;20037;-83
2023/07/07 16:12:39;;;;;;;9.40;4.40;;;31.00;42.20;;;;;;8316813;28;20083;-83
2023/07/07 16:16:40;;;;;;;8.80;4.25;;;30.90;42.60;;;;;;8316766;28;20033;-83
2023/07/07 16:20:42;;;;;;;7.28;4.20;;;30.60;43.10;;;;;;8336239;28;20021;-83
2023/07/07 16:24:42;;;;;;;8.57;3.90;;;30.80;41.70;;;;;;8324607;28;20068;-83
2023/07/07 16:28:43;;;;;;;9.70;4.40;;;30.70;43.80;;;;;;8320694;28;20108;-83
2023/07/07 16:32:43;;;;;;;8.45;4.10;;;30.50;48.20;;;;;;8331547;28;20040;-83
2023/07/07 16:36:44;;;;;;;8.07;3.63;;;30.30;44.40;;;;;;8323701;28;20059;-83
2023/07/07 16:40:46;;;;;;;7.30;4.00;;;30.00;49.10;;;;;;8305473;28;20055;-83
2023/07/07 16:44:46;;;;;;;9.60;4.07;;;29.90;48.70;;;;;;8305058;28;20053;-83
2023/07/07 16:48:49;;;;;;;6.00;3.80;;;29.70;55.30;;;;;;8326591;28;20406;-83
2023/07/07 16:52:52;;;;;;;9.02;3.75;;;29.50;44.90;;;;;;8322146;28;20037;-84
2023/07/07 16:56:52;;;;;;;12.38;3.92;;;29.30;49.30;;;;;;8322801;28;20076;-83
2023/07/07 17:00:53;;;;;;;8.73;3.80;;;29.10;51.30;;;;;;8322507;28;20487;-83
2023/07/07 17:04:53;;;;;;;5.88;3.63;;;28.70;45.30;;;;;;8320882;28;20075;-83
2023/07/07 17:08:55;;;;;;;7.70;3.90;;;28.40;55.90;;;;;;8303135;28;20087;-83
2023/07/07 17:12:56;;;;;;;12.73;4.30;;;27.80;56.00;;;;;;8311980;28;20025;-84
2023/07/07 17:16:57;;;;;;;7.80;3.83;;;27.20;59.10;;;;;;8296338;28;20022;-83
2023/07/07 17:20:57;;;;;;;8.50;3.72;;;26.80;59.80;;;;;;8300055;28;20036;-83
2023/07/07 17:24:57;;;;;;;9.68;3.80;;;26.30;59.50;;;;;;8298638;28;20026;-83
2023/07/07 17:28:58;;;;;;;5.80;3.70;;;25.90;56.20;;;;;;8306945;28;20041;-84
2023/07/07 17:32:59;;;;;;;7.07;3.85;;;25.70;59.30;;;;;;8314457;28;20038;-83
2023/07/07 17:36:59;;;;;;;4.80;3.40;;;25.60;58.20;;;;;;8320612;28;20402;-83
2023/07/07 17:41:00;;;;;;;6.75;3.78;;;25.50;59.30;;;;;;8297278;28;20033;-83
2023/07/07 17:45:00;;;;;;;9.02;3.78;;;25.20;63.80;;;;;;8299892;28;20022;-83
2023/07/07 17:59:55;;;;;;;;;;;25.00;62.70;;;;;;8313559;27;1207078;-83
2023/07/07 18:03:56;;;;;;;;;;;25.20;67.20;;;;;;8351793;28;19955;-83
2023/07/07 18:07:57;;;;;;;7.70;3.73;;;25.20;63.30;;;;;;8370503;28;19916;-83
2023/07/07 18:11:57;;;;;;;9.38;3.63;;;25.10;70.10;;;;;;8343677;28;20028;-83
2023/07/07 18:15:58;;;;;;;8.95;4.10;;;24.90;64.20;;;;;;8353082;28;20495;-82
2023/07/07 18:19:58;;;;;;;8.73;3.83;;;24.60;66.20;;;;;;8359561;28;20037;-82
2023/07/07 18:23:59;;;;;;;6.55;3.75;;;24.20;73.30;;;;;;8360123;28;20026;-82
2023/07/07 18:27:59;;;;;;;8.82;4.18;;;23.60;73.00;;;;;;8331215;28;20026;-82
2023/07/07 18:32:00;;;;;;;6.50;4.22;;;23.30;70.30;;;;;;8365612;28;20025;-83
2023/07/07 18:36:00;;;;;;;6.78;4.35;;;23.20;72.10;;;;;;8354479;28;20415;-82
2023/07/07 18:40:01;;;;;;;9.95;4.63;;;23.00;76.20;;;;;;8339324;28;20060;-82
2023/07/07 18:44:01;;;;;;;7.82;4.13;;;22.70;75.20;;;;;;8331430;28;20111;-82
2023/07/07 18:48:02;;;;;;;10.07;4.78;;;22.50;76.20;;;;;;8325564;28;20026;-82
2023/07/07 18:52:02;;;;;;;9.35;4.85;;;22.50;74.80;;;;;;8352258;28;20025;-82
2023/07/07 18:56:16;;;;;;;12.57;4.53;;;22.50;73.80;;;;;;8348572;28;20033;-82
2023/07/07 19:00:17;;;;;;;12.43;4.82;;;22.20;74.10;;;;;;8331445;28;20038;-82
2023/07/07 19:04:17;;;;;;;7.82;4.85;;;21.80;80.00;;;;;;8321158;28;20032;-82
2023/07/07 19:08:18;;;;;;;11.68;6.18;;;21.50;80.50;;;;;;8319798;28;20017;-83
2023/07/07 19:12:19;;;;;;;10.20;5.38;;;21.30;82.10;;;;;;8318158;28;20018;-83
2023/07/07 19:16:23;;;;;;;11.52;5.22;;;21.00;82.80;;;;;;8314574;28;20018;-83
2023/07/07 19:20:24;;;;;;;10.18;5.40;;;20.80;86.30;;;;;;8316689;28;20674;-82
2023/07/07 19:24:25;;;;;;;8.30;5.03;;;20.70;89.40;;;;;;8342222;28;20071;-83
2023/07/07 19:28:31;;;;;;;7.85;4.97;;;20.40;89.80;;;;;;8304157;28;20056;-83
2023/07/07 19:32:32;;;;;;;10.48;5.15;;;20.20;91.00;;;;;;8340141;28;20052;-82
2023/07/07 19:36:37;;;;;;;14.65;5.53;;;20.00;90.90;;;;;;8333807;28;20033;-82
2023/07/07 19:40:39;;;;;;;7.53;5.00;;;20.00;90.60;;;;;;8312752;28;20485;-82
2023/07/07 19:44:40;;;;;;;9.93;5.75;;;19.90;90.60;;;;;;8337300;28;20017;-83
2023/07/07 19:48:41;;;;;;;9.75;5.45;;;19.70;90.90;;;;;;8334102;28;20080;-83
2023/07/07 19:52:42;;;;;;;9.38;6.03;;;19.60;91.10;;;;;;8333026;28;20499;-82
2023/07/07 19:56:44;;;;;;;9.65;5.88;;;19.50;89.30;;;;;;8323091;28;20471;-83
2023/07/07 20:00:44;;;;;;;10.43;6.03;;;19.40;90.90;;;;;;8312464;28;20037;-82
2023/07/07 20:04:45;;;;;;;9.93;5.80;;;19.40;90.10;;;;;;8335128;28;20018;-83
2023/07/07 20:08:46;;;;;;;10.35;5.72;;;19.40;90.70;;;;;;8318610;28;20026;-82
2023/07/07 20:12:48;;;;;;;9.93;5.88;;;19.40;90.40;;;;;;8332263;28;20014;-82
2023/07/07 20:16:52;;;;;;;8.93;5.68;;;19.30;89.50;;;;;;8304230;28;20030;-82
2023/07/07 20:20:53;;;;;;;16.48;5.72;;;19.20;91.30;;;;;;8336232;28;20034;-83
2023/07/07 20:24:53;;;;;;;9.77;5.82;;;19.20;91.00;;;;;;8331549;28;20399;-82
2023/07/07 20:28:56;;;;;;;9.52;5.78;;;19.00;91.20;;;;;;8311217;28;20057;-83
2023/07/07 20:32:56;;;;;;;10.57;6.03;;;19.00;90.80;;;;;;8337776;28;20121;-82
2023/07/07 20:36:57;;;;;;;8.45;5.65;;;18.90;92.30;;;;;;8326301;28;20030;-82
2023/07/07 20:40:57;;;;;;;11.23;5.22;;;19.00;91.10;;;;;;8319944;28;20494;-82
2023/07/07 20:44:58;;;;;;;12.88;5.50;;;18.90;91.20;;;;;;8323055;28;20041;-82
2023/07/07 20:49:00;;;;;;;9.40;5.70;;;18.90;92.00;;;;;;8336119;28;20486;-82
2023/07/07 20:53:01;;;;;;;11.55;5.53;;;18.80;92.60;;;;;;8344375;28;20502;-82
2023/07/07 20:57:01;;;;;;;9.25;5.70;;;18.70;92.40;;;;;;8328361;28;20040;-82
2023/07/07 21:01:02;;;;;;;14.60;6.65;;;18.60;93.00;;;;;;8336828;28;20029;-82
2023/07/07 21:05:04;;;;;;;11.23;6.45;;;18.50;94.30;;;;;;8321674;28;20443;-82
2023/07/07 21:09:11;;;;;;;12.15;7.10;;;18.40;94.40;;;;;;8331622;28;20055;-82
2023/07/07 21:13:11;;;;;;;10.48;5.90;;;18.50;94.40;;;;;;8336765;28;20022;-82
2023/07/07 21:17:13;;;;;;;12.70;6.78;;;18.40;95.00;;;;;;8319670;28;20057;-82
2023/07/07 21:21:15;;;;;;;11.70;6.30;;;18.30;94.10;;;;;;8328551;28;20026;-82
2023/07/07 21:25:16;;;;;;;10.63;5.53;;;18.20;94.90;;;;;;8297019;28;20434;-82
2023/07/07 21:29:16;;;;;;;9.30;5.85;;;18.10;96.30;;;;;;8311478;28;20022;-82
2023/07/07 21:33:17;;;;;;;9.10;5.90;;;18.00;97.30;;;;;;8320916;28;20029;-82
2023/07/07 21:37:17;;;;;;;9.85;6.28;;;18.10;96.80;;;;;;8305002;28;20036;-82
2023/07/07 21:41:19;;;;;;;9.82;5.80;;;18.00;97.90;;;;;;8324226;28;20060;-82